Branford, Connecticut
Current Conditions -  °F | °C
As of 4:25 PM on Monday 24 Nov 2014 (Local Time) from KHVN Reporting Station
Haze Haze  
Wind Chill: 58°   Ceiling: Unl
Heat Index: 58°   Visibility: 6mi
Dew Point: 54°   Wind: 10mph
Humidity: 87%   Direction: 180°S
Pressure: 29.62"   Gusts: NA
Location:  41.28°N, 72.82°W
Report Text: KHVN 242125Z 18009KT 6SM BR FEW009 14/12 A2962 RMK AO2 T01440122
Loading
Personal Weather Stations






























Interactive Weather Map New forecast layout! Learn more

10-Day Weather Forecast

Advertisements
Track Severe Weather on mobile